createdAt,value
2022-08-30T00:00:59.622Z,1015.96
2022-08-30T00:01:59.611Z,1015.97
2022-08-30T00:02:59.611Z,1015.97
2022-08-30T00:03:59.648Z,1015.97
2022-08-30T00:04:59.629Z,1015.97
2022-08-30T00:05:59.576Z,1015.97
2022-08-30T00:06:59.539Z,1015.97
2022-08-30T00:07:59.542Z,1015.95
2022-08-30T00:08:59.485Z,1015.94
2022-08-30T00:09:59.463Z,1015.94
2022-08-30T00:10:59.471Z,1015.94
2022-08-30T00:11:59.472Z,1015.94
2022-08-30T00:12:59.462Z,1015.95
2022-08-30T00:13:59.423Z,1015.95
2022-08-30T00:14:59.504Z,1015.95
2022-08-30T00:15:59.615Z,1015.97
2022-08-30T00:16:59.375Z,1015.97
2022-08-30T00:17:59.408Z,1015.97
2022-08-30T00:18:59.455Z,1015.96
2022-08-30T00:19:59.458Z,1015.96
2022-08-30T00:20:59.386Z,1015.94
2022-08-30T00:21:59.421Z,1015.93
2022-08-30T00:22:59.430Z,1015.90
2022-08-30T00:23:59.364Z,1015.89
2022-08-30T00:24:59.384Z,1015.90
2022-08-30T00:25:59.342Z,1015.91
2022-08-30T00:26:59.298Z,1015.92
2022-08-30T00:27:59.308Z,1015.93
2022-08-30T00:28:59.316Z,1015.93
2022-08-30T00:29:59.267Z,1015.92
2022-08-30T00:30:59.330Z,1015.90
2022-08-30T00:31:59.322Z,1015.89
2022-08-30T00:32:59.237Z,1015.88
2022-08-30T00:33:59.295Z,1015.88
2022-08-30T00:34:59.191Z,1015.89
2022-08-30T00:35:59.229Z,1015.90
2022-08-30T00:36:59.213Z,1015.90
2022-08-30T00:37:59.179Z,1015.90
2022-08-30T00:38:59.220Z,1015.88
2022-08-30T00:39:59.280Z,1015.87
2022-08-30T00:40:59.166Z,1015.86
2022-08-30T00:41:59.127Z,1015.85
2022-08-30T00:42:59.588Z,1015.84
2022-08-30T00:43:59.145Z,1015.85
2022-08-30T00:44:59.125Z,1015.85
2022-08-30T00:45:59.287Z,1015.86
2022-08-30T00:46:59.084Z,1015.86
2022-08-30T00:47:59.073Z,1015.87
2022-08-30T00:48:59.062Z,1015.87
2022-08-30T00:49:59.056Z,1015.87
2022-08-30T00:50:59.076Z,1015.86
2022-08-30T00:51:59.122Z,1015.86
2022-08-30T00:52:59.057Z,1015.85
2022-08-30T00:53:59.030Z,1015.85
2022-08-30T00:54:59.050Z,1015.83
2022-08-30T00:55:58.982Z,1015.83
2022-08-30T00:56:58.956Z,1015.82
2022-08-30T00:57:58.978Z,1015.82
2022-08-30T00:58:59.070Z,1015.81
2022-08-30T00:59:58.974Z,1015.81
2022-08-30T01:00:58.969Z,1015.81
2022-08-30T01:01:59.027Z,1015.82
2022-08-30T01:02:58.990Z,1015.83
2022-08-30T01:03:58.921Z,1015.84
2022-08-30T01:04:58.897Z,1015.84
2022-08-30T01:05:58.915Z,1015.85
2022-08-30T01:06:58.899Z,1015.86
2022-08-30T01:07:58.887Z,1015.87
2022-08-30T01:08:58.868Z,1015.88
2022-08-30T01:09:58.875Z,1015.89
2022-08-30T01:10:58.849Z,1015.90
2022-08-30T01:11:58.840Z,1015.90
2022-08-30T01:12:58.825Z,1015.90
2022-08-30T01:13:58.794Z,1015.91
2022-08-30T01:14:58.790Z,1015.91
2022-08-30T01:15:58.903Z,1015.91
2022-08-30T01:16:58.769Z,1015.89
2022-08-30T01:17:58.830Z,1015.89
2022-08-30T01:18:58.790Z,1015.87
2022-08-30T01:19:58.744Z,1015.86
2022-08-30T01:20:58.761Z,1015.87
2022-08-30T01:21:58.715Z,1015.87
2022-08-30T01:22:58.734Z,1015.88
2022-08-30T01:23:58.733Z,1015.87
2022-08-30T01:24:58.684Z,1015.87
2022-08-30T01:25:58.722Z,1015.86
2022-08-30T01:26:58.687Z,1015.86
2022-08-30T01:27:58.694Z,1015.87
2022-08-30T01:28:58.634Z,1015.87
2022-08-30T01:29:58.621Z,1015.90
2022-08-30T01:30:58.686Z,1015.90
2022-08-30T01:31:58.638Z,1015.92
2022-08-30T01:32:58.682Z,1015.93
2022-08-30T01:33:58.675Z,1015.93
2022-08-30T01:34:58.623Z,1015.93
2022-08-30T01:35:58.651Z,1015.93
2022-08-30T01:36:58.571Z,1015.93
2022-08-30T01:37:58.676Z,1015.94
2022-08-30T01:38:58.547Z,1015.95
2022-08-30T01:39:58.618Z,1015.95
2022-08-30T01:40:58.531Z,1015.95
2022-08-30T01:41:58.536Z,1015.96
2022-08-30T01:42:58.554Z,1015.96
2022-08-30T01:43:58.543Z,1015.96
2022-08-30T01:44:58.577Z,1015.95
2022-08-30T01:45:58.545Z,1015.96
2022-08-30T01:46:58.559Z,1015.96
2022-08-30T01:47:58.714Z,1015.94
2022-08-30T01:48:58.469Z,1015.93
2022-08-30T01:49:58.420Z,1015.93
2022-08-30T01:50:58.425Z,1015.93
2022-08-30T01:52:01.071Z,1015.92
2022-08-30T01:52:58.371Z,1015.92
2022-08-30T01:53:58.426Z,1015.91
2022-08-30T01:54:58.437Z,1015.93
2022-08-30T01:55:58.725Z,1015.95
2022-08-30T01:56:58.407Z,1015.97
2022-08-30T01:57:58.374Z,1015.99
2022-08-30T01:59:02.578Z,1016.01
2022-08-30T01:59:58.331Z,1016.03
2022-08-30T02:00:58.378Z,1016.05
2022-08-30T02:01:58.385Z,1016.05
2022-08-30T02:02:58.326Z,1016.06
2022-08-30T02:03:58.356Z,1016.07
2022-08-30T02:04:58.487Z,1016.08
2022-08-30T02:05:58.343Z,1016.08
2022-08-30T02:06:58.260Z,1016.09
2022-08-30T02:07:58.318Z,1016.09
2022-08-30T02:08:58.291Z,1016.08
2022-08-30T02:09:58.317Z,1016.08
2022-08-30T02:10:58.308Z,1016.06
2022-08-30T02:11:58.219Z,1016.05
2022-08-30T02:12:58.210Z,1016.04
2022-08-30T02:13:58.210Z,1016.02
2022-08-30T02:14:58.197Z,1016.01
2022-08-30T02:15:58.175Z,1016.01
2022-08-30T02:16:58.195Z,1016.00
2022-08-30T02:17:58.168Z,1016.01
2022-08-30T02:18:58.188Z,1016.03
2022-08-30T02:19:58.152Z,1016.05
2022-08-30T02:20:58.123Z,1016.05
2022-08-30T02:21:58.168Z,1016.07
2022-08-30T02:23:01.176Z,1016.08
2022-08-30T02:23:58.167Z,1016.10
2022-08-30T02:24:58.104Z,1016.11
2022-08-30T02:25:58.129Z,1016.11
2022-08-30T02:26:58.109Z,1016.11
2022-08-30T02:27:58.097Z,1016.10
2022-08-30T02:28:58.995Z,1016.09
2022-08-30T02:29:58.017Z,1016.07
2022-08-30T02:30:58.096Z,1016.05
2022-08-30T02:31:58.013Z,1016.04
2022-08-30T02:32:58.009Z,1016.02
2022-08-30T02:33:58.033Z,1016.01
2022-08-30T02:34:57.992Z,1016.01
2022-08-30T02:35:57.979Z,1016.01
2022-08-30T02:36:57.945Z,1016.01
2022-08-30T02:37:57.940Z,1016.01
2022-08-30T02:38:57.958Z,1016.00
2022-08-30T02:39:58.019Z,1015.99
2022-08-30T02:40:57.993Z,1015.97
2022-08-30T02:41:57.968Z,1015.95
2022-08-30T02:42:58.009Z,1015.94
2022-08-30T02:43:57.883Z,1015.94
2022-08-30T02:44:57.898Z,1015.94
2022-08-30T02:45:57.909Z,1015.94
2022-08-30T02:46:57.872Z,1015.93
2022-08-30T02:47:57.922Z,1015.93
2022-08-30T02:49:00.293Z,1015.93
2022-08-30T02:49:57.801Z,1015.93
2022-08-30T02:50:57.828Z,1015.93
2022-08-30T02:51:57.837Z,1015.94
2022-08-30T02:52:57.789Z,1015.92
2022-08-30T02:53:57.864Z,1015.92
2022-08-30T02:54:57.824Z,1015.90
2022-08-30T02:55:57.926Z,1015.89
2022-08-30T02:56:57.762Z,1015.88
2022-08-30T02:57:57.824Z,1015.88
2022-08-30T02:58:57.725Z,1015.87
2022-08-30T02:59:57.717Z,1015.86
2022-08-30T03:00:57.783Z,1015.86
2022-08-30T03:01:57.698Z,1015.86
2022-08-30T03:02:57.710Z,1015.86
2022-08-30T03:03:57.695Z,1015.85
2022-08-30T03:04:57.676Z,1015.83
2022-08-30T03:05:57.671Z,1015.81
2022-08-30T03:06:57.703Z,1015.79
2022-08-30T03:07:57.664Z,1015.77
2022-08-30T03:08:57.629Z,1015.75
2022-08-30T03:09:57.602Z,1015.73
2022-08-30T03:10:57.611Z,1015.72
2022-08-30T03:11:57.632Z,1015.71
2022-08-30T03:12:57.661Z,1015.72
2022-08-30T03:13:57.607Z,1015.72
2022-08-30T03:14:57.574Z,1015.74
2022-08-30T03:15:57.594Z,1015.74
2022-08-30T03:16:57.733Z,1015.75
2022-08-30T03:17:57.568Z,1015.76
2022-08-30T03:18:57.535Z,1015.77
2022-08-30T03:19:57.534Z,1015.79
2022-08-30T03:20:57.490Z,1015.80
2022-08-30T03:21:57.472Z,1015.81
2022-08-30T03:22:57.519Z,1015.82
2022-08-30T03:23:57.582Z,1015.84
2022-08-30T03:24:57.558Z,1015.85
2022-08-30T03:25:57.452Z,1015.87
2022-08-30T03:26:57.414Z,1015.87
2022-08-30T03:27:57.476Z,1015.86
2022-08-30T03:28:57.499Z,1015.86
2022-08-30T03:29:57.440Z,1015.85
2022-08-30T03:30:57.429Z,1015.85
2022-08-30T03:31:57.514Z,1015.85
2022-08-30T03:32:57.387Z,1015.85
2022-08-30T03:33:57.376Z,1015.84
2022-08-30T03:34:57.351Z,1015.85
2022-08-30T03:35:57.351Z,1015.85
2022-08-30T03:36:57.353Z,1015.84
2022-08-30T03:37:57.336Z,1015.82
2022-08-30T03:38:57.372Z,1015.81
2022-08-30T03:39:57.355Z,1015.78
2022-08-30T03:40:57.310Z,1015.76
2022-08-30T03:41:57.273Z,1015.74
2022-08-30T03:42:57.359Z,1015.73
2022-08-30T03:44:00.068Z,1015.73
2022-08-30T03:44:57.239Z,1015.72
2022-08-30T03:45:57.348Z,1015.71
2022-08-30T03:46:57.232Z,1015.71
2022-08-30T03:47:57.256Z,1015.71
2022-08-30T03:48:57.203Z,1015.70
2022-08-30T03:49:57.209Z,1015.69
2022-08-30T03:50:57.237Z,1015.69
2022-08-30T03:51:57.151Z,1015.70
2022-08-30T03:52:57.144Z,1015.71
2022-08-30T03:53:57.164Z,1015.72
2022-08-30T03:54:57.174Z,1015.73
2022-08-30T03:55:57.284Z,1015.75
2022-08-30T03:56:57.108Z,1015.77
2022-08-30T03:57:57.114Z,1015.78
2022-08-30T03:58:57.139Z,1015.80
2022-08-30T03:59:57.128Z,1015.80
2022-08-30T04:00:57.071Z,1015.81
2022-08-30T04:01:57.158Z,1015.81
2022-08-30T04:02:57.022Z,1015.82
2022-08-30T04:03:56.974Z,1015.82
2022-08-30T04:04:56.977Z,1015.83
2022-08-30T04:05:57.088Z,1015.84
2022-08-30T04:06:56.989Z,1015.85
2022-08-30T04:07:57.023Z,1015.86
2022-08-30T04:08:56.983Z,1015.87
2022-08-30T04:09:56.991Z,1015.87
2022-08-30T04:10:56.993Z,1015.88
2022-08-30T04:11:56.985Z,1015.88
2022-08-30T04:12:56.969Z,1015.88
2022-08-30T04:13:56.911Z,1015.88
2022-08-30T04:14:56.922Z,1015.87
2022-08-30T04:15:56.989Z,1015.86
2022-08-30T04:16:56.850Z,1015.84
2022-08-30T04:17:56.845Z,1015.82
2022-08-30T04:18:56.888Z,1015.81
2022-08-30T04:19:56.828Z,1015.81
2022-08-30T04:20:56.820Z,1015.81
2022-08-30T04:21:56.804Z,1015.82
2022-08-30T04:22:56.823Z,1015.83
2022-08-30T04:23:56.814Z,1015.85
2022-08-30T04:24:57.089Z,1015.87
2022-08-30T04:25:56.809Z,1015.90
2022-08-30T04:26:56.746Z,1015.92
2022-08-30T04:27:56.715Z,1015.93
2022-08-30T04:28:56.806Z,1015.93
2022-08-30T04:29:56.802Z,1015.92
2022-08-30T04:30:56.731Z,1015.93
2022-08-30T04:31:56.838Z,1015.92
2022-08-30T04:32:58.742Z,1015.92
2022-08-30T04:33:56.662Z,1015.93
2022-08-30T04:34:56.795Z,1015.94
2022-08-30T04:35:56.694Z,1015.94
2022-08-30T04:36:56.888Z,1015.94
2022-08-30T04:37:56.709Z,1015.92
2022-08-30T04:38:56.648Z,1015.92
2022-08-30T04:39:56.657Z,1015.92
2022-08-30T04:40:56.599Z,1015.93
2022-08-30T04:41:56.637Z,1015.94
2022-08-30T04:42:56.614Z,1015.96
2022-08-30T04:43:56.595Z,1015.97
2022-08-30T04:44:56.563Z,1015.97
2022-08-30T04:45:56.599Z,1015.96
2022-08-30T04:46:56.574Z,1015.97
2022-08-30T04:47:56.585Z,1015.98
2022-08-30T04:48:56.537Z,1015.98
2022-08-30T04:49:56.510Z,1015.98
2022-08-30T04:50:56.513Z,1015.99
2022-08-30T04:51:56.504Z,1016.00
2022-08-30T04:52:56.497Z,1016.01
2022-08-30T04:53:56.560Z,1016.01
2022-08-30T04:54:56.449Z,1016.02
2022-08-30T04:55:56.500Z,1016.02
2022-08-30T04:56:56.508Z,1016.02
2022-08-30T04:57:56.508Z,1016.02
2022-08-30T04:58:56.454Z,1016.03
2022-08-30T04:59:56.462Z,1016.04
2022-08-30T05:00:56.506Z,1016.05
2022-08-30T05:01:56.436Z,1016.05
2022-08-30T05:02:56.367Z,1016.05
2022-08-30T05:03:56.383Z,1016.06
2022-08-30T05:04:56.424Z,1016.07
2022-08-30T05:05:56.364Z,1016.08
2022-08-30T05:06:56.367Z,1016.10
2022-08-30T05:07:56.322Z,1016.12
2022-08-30T05:08:56.347Z,1016.13
2022-08-30T05:09:56.353Z,1016.14
2022-08-30T05:10:56.289Z,1016.14
2022-08-30T05:11:56.290Z,1016.15
2022-08-30T05:12:56.311Z,1016.17
2022-08-30T05:13:56.301Z,1016.17
2022-08-30T05:14:56.241Z,1016.18
2022-08-30T05:15:56.273Z,1016.18
2022-08-30T05:16:56.226Z,1016.18
2022-08-30T05:17:56.201Z,1016.20
2022-08-30T05:18:56.204Z,1016.22
2022-08-30T05:19:56.182Z,1016.21
2022-08-30T05:20:56.195Z,1016.22
2022-08-30T05:21:56.223Z,1016.21
2022-08-30T05:22:56.193Z,1016.21
2022-08-30T05:23:56.178Z,1016.20
2022-08-30T05:24:56.140Z,1016.21
2022-08-30T05:25:56.110Z,1016.20
2022-08-30T05:26:56.141Z,1016.20
2022-08-30T05:27:56.207Z,1016.20
2022-08-30T05:28:56.150Z,1016.20
2022-08-30T05:29:56.110Z,1016.21
2022-08-30T05:30:56.085Z,1016.21
2022-08-30T05:31:56.043Z,1016.22
2022-08-30T05:32:56.094Z,1016.22
2022-08-30T05:33:56.099Z,1016.23
2022-08-30T05:34:56.042Z,1016.23
2022-08-30T05:35:56.028Z,1016.24
2022-08-30T05:36:56.035Z,1016.25
2022-08-30T05:37:56.045Z,1016.26
2022-08-30T05:38:55.986Z,1016.26
2022-08-30T05:39:55.992Z,1016.27
2022-08-30T05:40:56.032Z,1016.29
2022-08-30T05:41:55.959Z,1016.29
2022-08-30T05:42:55.950Z,1016.30
2022-08-30T05:43:55.946Z,1016.31
2022-08-30T05:44:55.919Z,1016.32
2022-08-30T05:45:55.947Z,1016.31
2022-08-30T05:46:55.935Z,1016.31
2022-08-30T05:47:55.884Z,1016.30
2022-08-30T05:48:55.980Z,1016.29
2022-08-30T05:49:55.876Z,1016.29
2022-08-30T05:50:55.931Z,1016.30
2022-08-30T05:51:55.860Z,1016.31
2022-08-30T05:52:55.872Z,1016.32
2022-08-30T05:53:55.891Z,1016.34
2022-08-30T05:54:55.848Z,1016.38
2022-08-30T05:55:55.875Z,1016.40
2022-08-30T05:56:55.820Z,1016.42
2022-08-30T05:57:55.773Z,1016.43
2022-08-30T05:58:55.809Z,1016.43
2022-08-30T05:59:55.750Z,1016.44
2022-08-30T06:00:55.810Z,1016.46
2022-08-30T06:01:55.790Z,1016.47
2022-08-30T06:02:55.797Z,1016.49
2022-08-30T06:03:57.600Z,1016.49
2022-08-30T06:04:55.757Z,1016.50
2022-08-30T06:05:55.715Z,1016.50
2022-08-30T06:06:55.690Z,1016.50
2022-08-30T06:07:55.666Z,1016.48
2022-08-30T06:08:55.718Z,1016.46
2022-08-30T06:09:55.665Z,1016.45
2022-08-30T06:10:55.650Z,1016.45
2022-08-30T06:11:55.676Z,1016.44
2022-08-30T06:12:55.652Z,1016.45
2022-08-30T06:13:55.609Z,1016.45
2022-08-30T06:14:55.614Z,1016.44
2022-08-30T06:15:55.667Z,1016.44
2022-08-30T06:16:55.623Z,1016.41
2022-08-30T06:17:55.594Z,1016.41
2022-08-30T06:18:55.554Z,1016.40
2022-08-30T06:19:55.573Z,1016.40
2022-08-30T06:20:55.559Z,1016.41
2022-08-30T06:21:55.560Z,1016.41
2022-08-30T06:22:55.564Z,1016.43
2022-08-30T06:23:55.560Z,1016.46
2022-08-30T06:24:58.063Z,1016.48
2022-08-30T06:25:55.499Z,1016.52
2022-08-30T06:26:55.479Z,1016.53
2022-08-30T06:27:56.595Z,1016.55
2022-08-30T06:28:55.475Z,1016.56
2022-08-30T06:29:55.458Z,1016.57
2022-08-30T06:30:55.590Z,1016.58
2022-08-30T06:31:55.465Z,1016.57
2022-08-30T06:32:55.436Z,1016.55
2022-08-30T06:33:55.435Z,1016.55
2022-08-30T06:34:55.451Z,1016.53
2022-08-30T06:35:59.045Z,1016.53
2022-08-30T06:36:55.401Z,1016.53
2022-08-30T06:37:55.363Z,1016.53
2022-08-30T06:38:55.401Z,1016.54
2022-08-30T06:39:55.353Z,1016.53
2022-08-30T06:40:55.345Z,1016.54
2022-08-30T06:41:55.325Z,1016.53
2022-08-30T06:42:55.329Z,1016.55
2022-08-30T06:43:55.324Z,1016.55
2022-08-30T06:44:55.336Z,1016.55
2022-08-30T06:45:55.297Z,1016.56
2022-08-30T06:46:55.338Z,1016.57
2022-08-30T06:47:55.333Z,1016.57
2022-08-30T06:48:56.203Z,1016.57
2022-08-30T06:49:55.260Z,1016.57
2022-08-30T06:50:55.232Z,1016.59
2022-08-30T06:51:55.222Z,1016.54
2022-08-30T06:52:55.219Z,1016.55
2022-08-30T06:53:55.259Z,1016.53
2022-08-30T06:54:55.296Z,1016.53
2022-08-30T06:55:55.163Z,1016.54
2022-08-30T06:56:58.719Z,1016.54
2022-08-30T06:57:55.176Z,1016.52
2022-08-30T06:58:55.170Z,1016.54
2022-08-30T06:59:57.184Z,1016.55
2022-08-30T07:00:55.148Z,1016.56
2022-08-30T07:01:55.192Z,1016.57
2022-08-30T07:02:55.271Z,1016.58
2022-08-30T07:03:55.116Z,1016.59
2022-08-30T07:04:55.124Z,1016.61
2022-08-30T07:05:55.092Z,1016.64
2022-08-30T07:06:55.073Z,1016.66
2022-08-30T07:07:55.084Z,1016.67
2022-08-30T07:08:56.423Z,1016.68
2022-08-30T07:09:55.089Z,1016.67
2022-08-30T07:10:55.085Z,1016.68
2022-08-30T07:11:55.054Z,1016.69
2022-08-30T07:12:55.021Z,1016.67
2022-08-30T07:13:55.005Z,1016.66
2022-08-30T07:14:54.986Z,1016.66
2022-08-30T07:15:55.078Z,1016.64
2022-08-30T07:16:54.967Z,1016.63
2022-08-30T07:17:54.965Z,1016.62
2022-08-30T07:18:55.007Z,1016.60
2022-08-30T07:19:54.930Z,1016.59
2022-08-30T07:20:54.994Z,1016.59
2022-08-30T07:21:54.905Z,1016.59
2022-08-30T07:22:54.915Z,1016.57
2022-08-30T07:23:54.946Z,1016.55
2022-08-30T07:24:54.930Z,1016.53
2022-08-30T07:25:54.897Z,1016.52
2022-08-30T07:26:54.883Z,1016.54
2022-08-30T07:27:54.850Z,1016.55
2022-08-30T07:28:56.133Z,1016.56
2022-08-30T07:29:54.857Z,1016.56
2022-08-30T07:30:54.841Z,1016.60
2022-08-30T07:31:54.854Z,1016.59
2022-08-30T07:32:54.840Z,1016.58
2022-08-30T07:33:54.789Z,1016.57
2022-08-30T07:34:54.810Z,1016.56
2022-08-30T07:35:54.851Z,1016.54
2022-08-30T07:36:54.807Z,1016.60
2022-08-30T07:37:54.790Z,1016.58
2022-08-30T07:38:54.746Z,1016.57
2022-08-30T07:39:54.735Z,1016.58
2022-08-30T07:40:54.739Z,1016.57
2022-08-30T07:41:54.730Z,1016.57
2022-08-30T07:42:54.730Z,1016.56
2022-08-30T07:43:54.695Z,1016.57
2022-08-30T07:44:56.753Z,1016.57
2022-08-30T07:45:54.676Z,1016.55
2022-08-30T07:46:54.780Z,1016.57
2022-08-30T07:47:54.665Z,1016.58
2022-08-30T07:48:54.675Z,1016.56
2022-08-30T07:49:54.651Z,1016.60
2022-08-30T07:50:58.219Z,1016.56
2022-08-30T07:51:54.651Z,1016.58
2022-08-30T07:52:54.603Z,1016.56
2022-08-30T07:53:54.605Z,1016.57
2022-08-30T07:54:54.603Z,1016.59
2022-08-30T07:55:54.611Z,1016.60
2022-08-30T07:56:54.559Z,1016.59
2022-08-30T07:57:54.611Z,1016.59
2022-08-30T07:58:54.592Z,1016.59
2022-08-30T07:59:54.570Z,1016.63
2022-08-30T08:00:54.508Z,1016.63
2022-08-30T08:01:54.572Z,1016.64
2022-08-30T08:02:54.575Z,1016.62
2022-08-30T08:03:54.496Z,1016.64
2022-08-30T08:04:54.475Z,1016.62
2022-08-30T08:05:54.558Z,1016.64
2022-08-30T08:06:54.474Z,1016.62
2022-08-30T08:07:54.456Z,1016.62
2022-08-30T08:08:54.483Z,1016.64
2022-08-30T08:09:54.430Z,1016.64
2022-08-30T08:10:54.417Z,1016.65
2022-08-30T08:11:54.416Z,1016.65
2022-08-30T08:12:54.435Z,1016.67
2022-08-30T08:13:54.641Z,1016.66
2022-08-30T08:14:54.389Z,1016.66
2022-08-30T08:15:54.418Z,1016.63
2022-08-30T08:16:54.361Z,1016.65
2022-08-30T08:17:54.340Z,1016.61
2022-08-30T08:18:54.360Z,1016.64
2022-08-30T08:19:54.342Z,1016.63
2022-08-30T08:20:54.334Z,1016.64
2022-08-30T08:22:15.276Z,1016.63
2022-08-30T08:22:54.306Z,1016.64
2022-08-30T08:23:54.311Z,1016.64
2022-08-30T08:24:54.298Z,1016.61
2022-08-30T08:25:54.285Z,1016.64
2022-08-30T08:26:54.301Z,1016.63
2022-08-30T08:27:54.254Z,1016.65
2022-08-30T08:28:54.255Z,1016.64
2022-08-30T08:29:54.265Z,1016.64
2022-08-30T08:30:54.211Z,1016.65
2022-08-30T08:31:54.204Z,1016.67
2022-08-30T08:32:54.176Z,1016.62
2022-08-30T08:33:54.206Z,1016.59
2022-08-30T08:34:54.189Z,1016.61
2022-08-30T08:35:54.206Z,1016.61
2022-08-30T08:36:54.176Z,1016.60
2022-08-30T08:37:54.141Z,1016.63
2022-08-30T08:38:54.125Z,1016.64
2022-08-30T08:39:54.150Z,1016.67
2022-08-30T08:40:54.143Z,1016.68
2022-08-30T08:41:54.096Z,1016.68
2022-08-30T08:42:54.106Z,1016.65
2022-08-30T08:43:54.079Z,1016.67
2022-08-30T08:44:55.306Z,1016.66
2022-08-30T08:45:54.078Z,1016.67
2022-08-30T08:46:54.030Z,1016.66
2022-08-30T08:47:54.039Z,1016.64
2022-08-30T08:49:01.148Z,1016.67
2022-08-30T08:49:54.028Z,1016.65
2022-08-30T08:50:54.011Z,1016.69
2022-08-30T08:51:54.021Z,1016.67
2022-08-30T08:52:53.978Z,1016.68
2022-08-30T08:53:53.978Z,1016.70
2022-08-30T08:54:53.951Z,1016.73
2022-08-30T08:55:53.973Z,1016.68
2022-08-30T08:56:53.950Z,1016.74
2022-08-30T08:57:53.961Z,1016.73
2022-08-30T08:58:53.907Z,1016.73
2022-08-30T08:59:53.934Z,1016.72
2022-08-30T09:00:53.874Z,1016.71
2022-08-30T09:01:53.972Z,1016.78
2022-08-30T09:02:55.847Z,1016.73
2022-08-30T09:03:53.990Z,1016.74
2022-08-30T09:04:53.861Z,1016.74
2022-08-30T09:05:53.847Z,1016.73
2022-08-30T09:06:53.835Z,1016.72
2022-08-30T09:07:53.850Z,1016.70
2022-08-30T09:08:53.806Z,1016.69
2022-08-30T09:09:53.824Z,1016.69
2022-08-30T09:10:53.805Z,1016.69
2022-08-30T09:11:53.811Z,1016.71
2022-08-30T09:12:59.391Z,1016.71
2022-08-30T09:13:53.782Z,1016.70
2022-08-30T09:14:55.567Z,1016.69
2022-08-30T09:15:54.810Z,1016.71
2022-08-30T09:16:53.758Z,1016.71
2022-08-30T09:17:53.812Z,1016.72
2022-08-30T09:18:54.775Z,1016.72
2022-08-30T09:19:53.698Z,1016.72
2022-08-30T09:20:53.685Z,1016.70
2022-08-30T09:21:53.672Z,1016.72
2022-08-30T09:22:53.656Z,1016.75
2022-08-30T09:23:53.690Z,1016.72
2022-08-30T09:24:53.670Z,1016.73
2022-08-30T09:25:53.680Z,1016.70
2022-08-30T09:26:53.616Z,1016.69
2022-08-30T09:27:53.629Z,1016.69
2022-08-30T09:28:53.649Z,1016.66
2022-08-30T09:29:53.600Z,1016.65
2022-08-30T09:30:53.596Z,1016.65
2022-08-30T09:32:10.133Z,1016.73
2022-08-30T09:32:53.575Z,1016.63
2022-08-30T09:33:53.553Z,1016.64
2022-08-30T09:34:53.529Z,1016.60
2022-08-30T09:35:54.149Z,1016.62
2022-08-30T09:36:53.524Z,1016.64
2022-08-30T09:37:53.525Z,1016.66
2022-08-30T09:38:53.489Z,1016.64
2022-08-30T09:39:53.499Z,1016.63
2022-08-30T09:40:53.490Z,1016.66
2022-08-30T09:41:53.498Z,1016.65
2022-08-30T09:42:53.481Z,1016.66
2022-08-30T09:43:53.490Z,1016.66
2022-08-30T09:44:53.459Z,1016.66
2022-08-30T09:45:53.446Z,1016.66
2022-08-30T09:46:53.425Z,1016.61
2022-08-30T09:47:53.423Z,1016.61
2022-08-30T09:48:53.438Z,1016.62
2022-08-30T09:49:53.426Z,1016.60
2022-08-30T09:50:53.417Z,1016.60
2022-08-30T09:51:53.374Z,1016.59
2022-08-30T09:52:55.313Z,1016.60
2022-08-30T09:54:14.432Z,1016.61
2022-08-30T09:54:53.357Z,1016.60
2022-08-30T09:55:53.371Z,1016.57
2022-08-30T09:56:53.320Z,1016.61
2022-08-30T09:57:53.310Z,1016.57
2022-08-30T09:58:53.319Z,1016.57
2022-08-30T09:59:53.340Z,1016.58
2022-08-30T10:00:53.360Z,1016.58
2022-08-30T10:01:53.279Z,1016.58
2022-08-30T10:02:53.272Z,1016.59
2022-08-30T10:03:53.274Z,1016.59
2022-08-30T10:04:53.246Z,1016.59
2022-08-30T10:05:53.236Z,1016.60
2022-08-30T10:06:53.245Z,1016.59
2022-08-30T11:42:43.875Z,1016.54
2022-08-30T11:42:49.168Z,1016.08
2022-08-30T11:43:48.799Z,1016.05
2022-08-30T11:44:48.918Z,1016.08
2022-08-30T11:45:48.793Z,1016.06
2022-08-30T11:46:48.767Z,1016.07
2022-08-30T11:47:48.731Z,1016.07
2022-08-30T11:48:55.185Z,1016.09
2022-08-30T11:49:48.733Z,1016.06
2022-08-30T11:50:48.767Z,1016.11
2022-08-30T11:51:58.118Z,1016.13
2022-08-30T11:52:48.825Z,1016.11
2022-08-30T11:53:48.666Z,1016.12
2022-08-30T11:54:52.726Z,1016.12
2022-08-30T11:55:48.643Z,1016.09
2022-08-30T11:56:48.643Z,1016.09
2022-08-30T11:57:49.886Z,1016.07
2022-08-30T11:58:48.624Z,1016.08
2022-08-30T11:59:48.609Z,1016.04
2022-08-30T12:00:52.775Z,1016.03
2022-08-30T12:01:51.053Z,1016.04
2022-08-30T12:02:48.713Z,1016.03
2022-08-30T12:03:48.609Z,1016.07
2022-08-30T12:04:48.613Z,1016.04
2022-08-30T12:05:48.579Z,1016.04
2022-08-30T12:06:48.544Z,1016.01
2022-08-30T12:07:48.553Z,1015.97
2022-08-30T12:08:48.523Z,1016.01
2022-08-30T12:09:48.498Z,1016.01
2022-08-30T12:10:48.496Z,1016.03
2022-08-30T12:11:48.500Z,1016.00
2022-08-30T12:12:48.486Z,1015.99
2022-08-30T12:13:48.474Z,1015.97
2022-08-30T12:14:48.510Z,1015.96
2022-08-30T12:15:48.453Z,1015.96
2022-08-30T12:16:48.474Z,1016.00
2022-08-30T12:17:48.460Z,1015.97
2022-08-30T12:18:48.424Z,1015.95
2022-08-30T12:19:50.205Z,1015.93
2022-08-30T12:20:48.399Z,1015.92
2022-08-30T12:21:48.397Z,1015.90
2022-08-30T12:22:48.386Z,1015.87
2022-08-30T12:23:48.368Z,1015.86
2022-08-30T12:24:48.374Z,1015.89
2022-08-30T12:25:48.344Z,1015.89
2022-08-30T12:26:48.353Z,1015.90
2022-08-30T12:27:48.333Z,1015.87
2022-08-30T12:28:48.325Z,1015.83
2022-08-30T12:29:48.328Z,1015.83
2022-08-30T12:30:48.309Z,1015.82
2022-08-30T12:31:48.389Z,1015.83
2022-08-30T12:32:50.792Z,1015.79
2022-08-30T12:33:48.967Z,1015.80
2022-08-30T12:34:48.278Z,1015.81
2022-08-30T12:35:48.243Z,1015.79
2022-08-30T12:36:48.242Z,1015.77
2022-08-30T12:37:48.218Z,1015.76
2022-08-30T12:38:48.810Z,1015.78
2022-08-30T12:39:53.583Z,1015.74
2022-08-30T12:40:48.313Z,1015.76
2022-08-30T12:41:48.175Z,1015.71
2022-08-30T12:42:48.207Z,1015.67
2022-08-30T12:43:48.531Z,1015.72
2022-08-30T12:44:48.158Z,1015.68
2022-08-30T12:45:50.759Z,1015.73
2022-08-30T12:46:48.195Z,1015.75
2022-08-30T12:47:48.143Z,1015.75
2022-08-30T12:48:48.134Z,1015.74
2022-08-30T12:49:48.095Z,1015.73
2022-08-30T12:50:48.124Z,1015.75
2022-08-30T12:51:48.088Z,1015.73
2022-08-30T12:52:48.077Z,1015.73
2022-08-30T12:53:48.061Z,1015.70
2022-08-30T12:54:48.072Z,1015.69
2022-08-30T12:55:48.053Z,1015.71
2022-08-30T12:56:49.536Z,1015.71
2022-08-30T12:57:48.025Z,1015.72
2022-08-30T12:58:48.049Z,1015.72
2022-08-30T12:59:54.130Z,1015.68
2022-08-30T13:00:48.148Z,1015.68
2022-08-30T13:01:48.122Z,1015.70
2022-08-30T13:02:47.965Z,1015.70
2022-08-30T13:03:47.988Z,1015.67
2022-08-30T13:04:47.958Z,1015.67
2022-08-30T13:05:50.055Z,1015.67
2022-08-30T13:06:47.976Z,1015.65
2022-08-30T13:07:47.908Z,1015.64
2022-08-30T13:08:47.934Z,1015.63
2022-08-30T13:09:47.902Z,1015.61
2022-08-30T13:10:47.909Z,1015.58
2022-08-30T13:11:47.885Z,1015.56
2022-08-30T13:12:47.910Z,1015.56
2022-08-30T13:13:52.196Z,1015.56
2022-08-30T13:14:47.857Z,1015.55
2022-08-30T13:15:47.842Z,1015.54
2022-08-30T13:16:48.009Z,1015.58
2022-08-30T13:17:47.819Z,1015.59
2022-08-30T13:18:47.798Z,1015.54
2022-08-30T13:19:47.819Z,1015.52
2022-08-30T13:20:47.795Z,1015.51
2022-08-30T13:21:47.771Z,1015.49
2022-08-30T13:22:47.774Z,1015.50
2022-08-30T13:23:47.746Z,1015.50
2022-08-30T13:24:47.751Z,1015.48
2022-08-30T13:25:47.759Z,1015.48
2022-08-30T13:26:47.717Z,1015.46
2022-08-30T13:27:47.726Z,1015.44
2022-08-30T13:28:48.708Z,1015.47
2022-08-30T13:29:47.722Z,1015.49
2022-08-30T13:30:47.702Z,1015.45
2022-08-30T13:31:47.722Z,1015.44
2022-08-30T13:32:47.668Z,1015.42
2022-08-30T13:33:47.676Z,1015.40
2022-08-30T13:34:47.638Z,1015.35
2022-08-30T13:35:47.662Z,1015.36
2022-08-30T13:36:47.671Z,1015.37
2022-08-30T13:37:51.207Z,1015.35
2022-08-30T13:38:47.586Z,1015.34
2022-08-30T13:39:47.609Z,1015.33